4N1 weather

Greenwood Lake Airport
West Milford, New Jersey, United States

Public forecast

Using degrees Fahrenheit for public forecast. Weather courtesy of forecast.io.

Closest aviation weather report (METAR) to Greenwood Lake Airport

Closest report is Sussex Airport, 13.2 nm (24.5 km) WNW. Retrieved 2019/10/17 06:53 UTC (28 minutes ago):

KFWN 170653Z AUTO 24007KT 200V320 10SM BKN030 OVC038 10/05 A2928 RMK AO2 SLP915 T01000050

Closest aviation forecast (TAF) to Greenwood Lake Airport

Closest forecast is Teterboro Airport, 21.1 nm (39.1 km) SE. Retrieved 2019/10/17 06:34 UTC (47 minutes ago):

TAF KTEB 170532Z 1706/1812 30019G29KT P6SM BKN045 FM170900 25017G27KT P6SM BKN045 FM171500 27028G38KT P6SM BKN050 FM172300 28017G27KT P6SM BKN050 FM180100 29014G24KT P6SM BKN050